createdAt,value
2022-09-05T00:02:22.724Z,21.31
2022-09-05T00:04:59.543Z,21.28
2022-09-05T00:07:58.918Z,21.27
2022-09-05T00:10:36.131Z,21.23
2022-09-05T00:13:12.776Z,21.21
2022-09-05T00:15:55.489Z,21.19
2022-09-05T00:24:19.457Z,21.17
2022-09-05T00:24:27.842Z,21.17
2022-09-05T00:25:20.883Z,21.12
2022-09-05T00:27:55.191Z,21.10
2022-09-05T00:31:08.970Z,21.03
2022-09-05T00:33:28.958Z,20.96
2022-09-05T00:36:16.042Z,20.93
2022-09-05T00:38:56.786Z,20.91
2022-09-05T00:41:32.902Z,20.87
2022-09-05T00:44:06.648Z,20.83
2022-09-05T00:46:41.604Z,20.80
2022-09-05T00:49:22.172Z,20.79
2022-09-05T00:51:57.991Z,20.75
2022-09-05T00:54:53.512Z,20.72
2022-09-05T00:57:48.053Z,20.68
2022-09-05T01:00:20.030Z,20.63
2022-09-05T01:03:22.325Z,20.60
2022-09-05T01:06:04.954Z,20.56
2022-09-05T01:08:51.957Z,20.55
2022-09-05T01:11:36.784Z,20.56
2022-09-05T01:14:25.038Z,20.56
2022-09-05T01:17:21.773Z,20.55
2022-09-05T01:20:19.258Z,20.49
2022-09-05T01:23:18.868Z,20.46
2022-09-05T01:26:04.754Z,20.42
2022-09-05T01:29:16.023Z,20.39
2022-09-05T01:31:44.116Z,20.34
2022-09-05T01:34:31.335Z,20.29
2022-09-05T01:37:29.703Z,20.26
2022-09-05T01:40:17.051Z,20.24
2022-09-05T01:43:04.413Z,20.20
2022-09-05T01:45:50.646Z,20.16
2022-09-05T01:48:32.558Z,20.10
2022-09-05T01:51:28.755Z,20.06
2022-09-05T01:54:21.375Z,20.05
2022-09-05T01:57:09.962Z,20.03
2022-09-05T01:59:47.753Z,20.01
2022-09-05T02:02:35.467Z,19.96
2022-09-05T02:05:48.569Z,19.87
2022-09-05T02:08:25.197Z,19.82
2022-09-05T02:11:06.500Z,19.79
2022-09-05T02:14:02.379Z,19.76
2022-09-05T02:16:44.351Z,19.69
2022-09-05T02:19:22.331Z,19.67
2022-09-05T02:22:01.060Z,19.63
2022-09-05T02:24:39.044Z,19.58
2022-09-05T02:27:48.955Z,19.51
2022-09-05T02:30:22.741Z,19.45
2022-09-05T02:33:01.109Z,19.44
2022-09-05T02:35:41.413Z,19.40
2022-09-05T02:41:18.787Z,19.39
2022-09-05T02:45:09.337Z,19.32
2022-09-05T02:45:21.519Z,19.27
2022-09-05T02:47:09.553Z,19.22
2022-09-05T02:52:14.199Z,19.18
2022-09-05T02:57:29.429Z,19.14
2022-09-05T02:57:37.225Z,19.12
2022-09-05T02:59:09.490Z,19.10
2022-09-05T03:02:01.215Z,19.03
2022-09-05T03:04:46.243Z,18.98
2022-09-05T03:07:37.305Z,18.96
2022-09-05T03:10:53.187Z,18.92
2022-09-05T03:13:58.238Z,18.87
2022-09-05T03:17:00.304Z,18.86
2022-09-05T03:20:01.810Z,18.87
2022-09-05T03:23:03.576Z,18.86
2022-09-05T03:26:06.889Z,18.85
2022-09-05T03:29:11.958Z,18.83
2022-09-05T03:32:02.707Z,18.80
2022-09-05T03:34:53.736Z,18.81
2022-09-05T03:37:49.522Z,18.79
2022-09-05T03:40:49.730Z,18.74
2022-09-05T03:43:48.378Z,18.72
2022-09-05T03:46:31.954Z,18.73
2022-09-05T03:53:09.221Z,18.70
2022-09-05T03:57:10.711Z,18.66
2022-09-05T03:57:23.882Z,18.63
2022-09-05T03:58:57.239Z,18.63
2022-09-05T04:02:59.987Z,18.61
2022-09-05T04:08:09.054Z,18.60
2022-09-05T04:08:17.766Z,18.58
2022-09-05T04:10:32.180Z,18.57
2022-09-05T04:13:09.123Z,18.59
2022-09-05T04:15:46.470Z,18.60
2022-09-05T04:18:33.019Z,18.60
2022-09-05T04:21:07.263Z,18.58
2022-09-05T04:23:49.601Z,18.52
2022-09-05T04:26:31.485Z,18.46
2022-09-05T04:29:15.225Z,18.38
2022-09-05T04:32:17.780Z,18.36
2022-09-05T04:34:59.521Z,18.33
2022-09-05T04:37:48.416Z,18.28
2022-09-05T04:40:38.230Z,18.23
2022-09-05T04:43:11.205Z,18.16
2022-09-05T04:45:44.903Z,18.13
2022-09-05T04:48:22.371Z,18.13
2022-09-05T04:51:12.901Z,18.12
2022-09-05T04:54:03.979Z,18.10
2022-09-05T04:56:38.974Z,18.10
2022-09-05T05:04:02.353Z,18.13
2022-09-05T05:06:10.848Z,18.16
2022-09-05T05:06:11.230Z,18.15
2022-09-05T05:08:38.124Z,18.20
2022-09-05T05:17:58.148Z,18.22
2022-09-05T05:18:03.732Z,18.20
2022-09-05T05:18:14.521Z,18.18
2022-09-05T05:20:42.256Z,18.21
2022-09-05T05:23:07.521Z,18.22
2022-09-05T05:25:50.530Z,18.26
2022-09-05T05:28:29.824Z,18.30
2022-09-05T05:31:11.410Z,18.28
2022-09-05T05:33:43.802Z,18.25
2022-09-05T05:36:23.026Z,18.22
2022-09-05T05:39:00.825Z,18.22
2022-09-05T05:41:40.016Z,18.24
2022-09-05T05:44:16.290Z,18.25
2022-09-05T05:46:50.567Z,18.29
2022-09-05T05:49:40.751Z,18.33
2022-09-05T05:52:34.668Z,18.39
2022-09-05T05:55:51.314Z,18.38
2022-09-05T05:58:20.655Z,18.36
2022-09-05T06:01:32.940Z,18.41
2022-09-05T06:04:44.807Z,18.41
2022-09-05T06:07:25.635Z,18.38
2022-09-05T06:14:52.138Z,18.36
2022-09-05T06:14:57.128Z,18.42
2022-09-05T06:17:04.035Z,18.50
2022-09-05T06:22:07.727Z,18.56
2022-09-05T06:23:28.767Z,18.67
2022-09-05T06:26:37.062Z,18.74
2022-09-05T06:29:19.253Z,18.80
2022-09-05T06:32:05.646Z,18.88
2022-09-05T06:35:00.213Z,18.96
2022-09-05T06:37:43.641Z,19.02
2022-09-05T06:40:21.584Z,19.07
2022-09-05T06:43:14.273Z,19.16
2022-09-05T06:46:13.420Z,19.27
2022-09-05T06:49:31.113Z,19.34
2022-09-05T06:52:28.252Z,19.50
2022-09-05T06:55:39.500Z,19.69
2022-09-05T06:58:39.146Z,19.87
2022-09-05T07:01:13.281Z,20.13
2022-09-05T07:04:33.296Z,20.30
2022-09-05T07:07:08.119Z,20.40
2022-09-05T07:10:00.551Z,20.46
2022-09-05T07:12:33.209Z,20.57
2022-09-05T07:15:14.555Z,20.68
2022-09-05T07:18:10.047Z,20.82
2022-09-05T07:21:15.898Z,21.07
2022-09-05T07:24:09.315Z,21.39
2022-09-05T07:26:54.097Z,21.67
2022-09-05T07:29:29.876Z,21.95
2022-09-05T07:32:02.359Z,22.22
2022-09-05T07:34:36.414Z,22.50
2022-09-05T07:37:14.664Z,22.77
2022-09-05T07:39:50.882Z,23.03
2022-09-05T07:42:27.262Z,23.28
2022-09-05T07:44:59.768Z,23.38
2022-09-05T07:47:33.135Z,23.56
2022-09-05T07:51:42.907Z,23.71
2022-09-05T07:56:52.334Z,23.87
2022-09-05T07:57:10.467Z,24.03
2022-09-05T07:58:53.676Z,24.15
2022-09-05T08:01:25.290Z,24.28
2022-09-05T08:04:00.348Z,24.38
2022-09-05T08:07:34.347Z,24.50
2022-09-05T08:10:06.885Z,24.69
2022-09-05T08:12:27.882Z,24.83
2022-09-05T08:15:10.317Z,24.97
2022-09-05T08:17:58.736Z,25.12
2022-09-05T08:20:37.593Z,25.26
2022-09-05T08:23:21.917Z,25.39
2022-09-05T08:26:00.966Z,25.53
2022-09-05T08:28:40.071Z,25.61
2022-09-05T08:31:14.925Z,25.63
2022-09-05T08:33:48.481Z,25.62
2022-09-05T08:36:29.047Z,25.65
2022-09-05T08:39:03.539Z,25.69
2022-09-05T08:41:50.354Z,25.77
2022-09-05T08:46:40.901Z,25.89
2022-09-05T08:47:45.134Z,25.92
2022-09-05T08:50:33.617Z,25.93
2022-09-05T08:53:26.334Z,26.02
2022-09-05T08:56:17.008Z,26.13
2022-09-05T08:59:31.556Z,26.29
2022-09-05T09:02:45.153Z,26.50
2022-09-05T09:05:14.308Z,26.58
2022-09-05T09:07:51.499Z,26.71
2022-09-05T09:10:45.364Z,26.88
2022-09-05T09:13:36.948Z,27.00
2022-09-05T09:16:11.525Z,27.08
2022-09-05T09:19:00.802Z,27.22
2022-09-05T09:21:40.021Z,27.39
2022-09-05T09:24:25.805Z,27.50
2022-09-05T09:27:00.077Z,27.61
2022-09-05T09:29:38.347Z,27.74
2022-09-05T09:32:13.470Z,27.85
2022-09-05T09:34:55.424Z,28.01
2022-09-05T09:37:51.925Z,28.12
2022-09-05T09:41:00.699Z,28.22
2022-09-05T09:43:38.370Z,28.28
2022-09-05T09:46:22.395Z,28.33
2022-09-05T09:49:02.923Z,28.38
2022-09-05T09:51:57.801Z,28.41
2022-09-05T09:54:53.497Z,28.41
2022-09-05T09:57:57.363Z,28.31
2022-09-05T10:00:32.270Z,28.23
2022-09-05T10:07:50.260Z,28.11
2022-09-05T10:10:49.033Z,28.05
2022-09-05T10:10:58.383Z,28.05
2022-09-05T10:13:26.891Z,27.99
2022-09-05T10:16:26.790Z,27.95
2022-09-05T10:22:49.224Z,28.01
2022-09-05T10:25:43.119Z,28.10
2022-09-05T10:28:26.068Z,28.12
2022-09-05T10:33:56.994Z,28.15
2022-09-05T10:35:16.250Z,28.20
2022-09-05T10:37:07.417Z,28.22
2022-09-05T10:39:41.357Z,28.30
2022-09-05T10:42:16.829Z,28.37
2022-09-05T10:44:53.770Z,28.38
2022-09-05T10:47:38.543Z,28.32
2022-09-05T10:50:23.440Z,28.27
2022-09-05T10:53:27.108Z,28.25
2022-09-05T10:56:14.069Z,28.26
2022-09-05T11:02:19.454Z,28.29
2022-09-05T11:02:28.711Z,28.32
2022-09-05T11:05:02.496Z,28.35
2022-09-05T11:07:42.250Z,28.36
2022-09-05T11:10:17.684Z,28.40
2022-09-05T11:13:14.459Z,28.42
2022-09-05T11:16:04.744Z,28.38
2022-09-05T11:19:04.523Z,28.37
2022-09-05T11:21:46.300Z,28.46
2022-09-05T11:24:32.756Z,28.50
2022-09-05T11:27:24.775Z,28.51
2022-09-05T11:30:00.035Z,28.57
2022-09-05T11:37:29.436Z,28.63
2022-09-05T11:39:51.196Z,28.80
2022-09-05T11:39:55.488Z,28.69
2022-09-05T11:42:34.862Z,28.89
2022-09-05T11:45:22.230Z,28.90
2022-09-05T11:48:22.300Z,28.95
2022-09-05T11:51:11.731Z,28.98
2022-09-05T11:53:58.764Z,28.94
2022-09-05T11:57:11.406Z,28.97
2022-09-05T12:00:33.252Z,29.02
2022-09-05T12:03:59.127Z,29.06
2022-09-05T12:06:49.759Z,29.16
2022-09-05T12:09:33.443Z,29.17
2022-09-05T12:12:19.317Z,29.17
2022-09-05T12:15:29.632Z,29.11
2022-09-05T12:18:19.031Z,29.15
2022-09-05T12:20:59.120Z,29.19
2022-09-05T12:23:57.955Z,29.22
2022-09-05T12:27:40.625Z,29.21
2022-09-05T12:29:36.259Z,29.25
2022-09-05T12:33:35.262Z,29.30
2022-09-05T12:36:11.729Z,29.28
2022-09-05T12:40:27.655Z,29.28
2022-09-05T12:41:38.998Z,29.29
2022-09-05T12:44:38.598Z,29.28
2022-09-05T12:47:20.159Z,29.29
2022-09-05T12:50:14.235Z,29.29
2022-09-05T12:52:47.195Z,29.25
2022-09-05T12:55:28.517Z,29.24
2022-09-05T13:02:02.803Z,29.25
2022-09-05T13:03:07.069Z,29.25
2022-09-05T13:06:51.227Z,29.34
2022-09-05T13:09:35.784Z,29.32
2022-09-05T13:14:48.005Z,29.26
2022-09-05T13:15:23.538Z,29.22
2022-09-05T13:18:00.490Z,29.22
2022-09-05T13:20:39.480Z,29.19
2022-09-05T13:23:21.761Z,29.14
2022-09-05T13:26:00.600Z,29.08
2022-09-05T13:28:41.587Z,29.01
2022-09-05T13:38:00.697Z,29.00
2022-09-05T13:38:20.928Z,28.98
2022-09-05T13:38:29.060Z,28.95
2022-09-05T13:40:02.406Z,28.90
2022-09-05T13:42:35.639Z,28.94
2022-09-05T13:45:08.900Z,29.02
2022-09-05T13:47:59.703Z,29.05
2022-09-05T13:50:33.140Z,28.99
2022-09-05T13:53:15.341Z,28.97
2022-09-05T13:55:56.693Z,28.97
2022-09-05T13:58:43.197Z,28.99
2022-09-05T14:02:25.626Z,29.03
2022-09-05T14:05:21.673Z,28.98
2022-09-05T14:08:33.766Z,28.96
2022-09-05T14:11:44.984Z,28.97
2022-09-05T14:17:51.469Z,29.09
2022-09-05T14:20:34.704Z,29.13
2022-09-05T14:23:10.311Z,29.18
2022-09-05T14:25:44.399Z,29.17
2022-09-05T14:28:24.584Z,29.20
2022-09-05T14:35:23.449Z,29.18
2022-09-05T14:37:48.158Z,29.19
2022-09-05T14:37:52.207Z,29.17
2022-09-05T14:40:30.456Z,29.18
2022-09-05T14:43:30.973Z,29.16
2022-09-05T14:46:38.891Z,29.11
2022-09-05T14:49:29.368Z,29.07
2022-09-05T14:51:59.941Z,29.07
2022-09-05T15:02:42.005Z,28.96
2022-09-05T15:02:45.490Z,28.88
2022-09-05T15:03:15.399Z,28.79
2022-09-05T15:05:50.604Z,28.73
2022-09-05T15:10:52.464Z,28.68
2022-09-05T15:12:21.099Z,28.68
2022-09-05T15:14:13.395Z,28.69
2022-09-05T15:16:59.059Z,28.73
2022-09-05T15:20:06.690Z,28.80
2022-09-05T15:22:39.920Z,28.82
2022-09-05T15:25:17.957Z,28.85
2022-09-05T15:27:49.644Z,28.85
2022-09-05T15:30:22.708Z,28.81
2022-09-05T15:33:14.610Z,28.78
2022-09-05T15:35:48.028Z,28.76
2022-09-05T15:38:38.751Z,28.72
2022-09-05T15:41:26.584Z,28.65
2022-09-05T15:44:00.520Z,28.62
2022-09-05T15:46:49.458Z,28.58
2022-09-05T15:49:30.001Z,28.50
2022-09-05T15:52:05.448Z,28.46
2022-09-05T15:54:39.321Z,28.44
2022-09-05T15:57:17.950Z,28.42
2022-09-05T15:59:50.805Z,28.38
2022-09-05T16:02:27.068Z,28.34
2022-09-05T16:10:27.071Z,28.31
2022-09-05T16:10:37.973Z,28.26
2022-09-05T16:14:25.995Z,28.16
2022-09-05T16:23:13.324Z,28.08
2022-09-05T16:23:30.448Z,27.99
2022-09-05T16:23:39.347Z,27.95
2022-09-05T16:26:09.531Z,27.93
2022-09-05T16:28:45.587Z,27.91
2022-09-05T16:31:22.651Z,27.89
2022-09-05T16:33:52.784Z,27.88
2022-09-05T16:36:29.568Z,27.87
2022-09-05T16:39:04.868Z,27.84
2022-09-05T16:41:45.211Z,27.82
2022-09-05T16:44:20.261Z,27.77
2022-09-05T16:47:06.516Z,27.73
2022-09-05T16:49:43.422Z,27.69
2022-09-05T16:52:17.866Z,27.64
2022-09-05T16:54:55.061Z,27.59
2022-09-05T16:57:30.142Z,27.54
2022-09-05T17:00:00.380Z,27.51
2022-09-05T17:02:32.037Z,27.47
2022-09-05T17:05:14.427Z,27.41
2022-09-05T17:08:02.123Z,27.35
2022-09-05T17:10:43.693Z,27.30
2022-09-05T17:13:16.631Z,27.27
2022-09-05T17:15:54.405Z,27.26
2022-09-05T17:18:31.270Z,27.22
2022-09-05T17:21:08.182Z,27.17
2022-09-05T17:29:11.420Z,27.13
2022-09-05T17:29:34.487Z,27.07
2022-09-05T17:31:26.549Z,26.98
2022-09-05T17:32:38.265Z,26.92
2022-09-05T17:35:20.294Z,26.88
2022-09-05T17:38:25.640Z,26.81
2022-09-05T17:41:37.725Z,26.73
2022-09-05T17:44:18.145Z,26.64
2022-09-05T17:47:00.417Z,26.59
2022-09-05T17:49:43.096Z,26.54
2022-09-05T17:52:25.128Z,26.49
2022-09-05T17:54:57.004Z,26.42
2022-09-05T17:57:45.356Z,26.37
2022-09-05T18:00:48.930Z,26.32
2022-09-05T18:04:17.193Z,26.25
2022-09-05T18:06:59.450Z,26.17
2022-09-05T18:10:14.749Z,26.11
2022-09-05T18:13:13.766Z,26.04
2022-09-05T18:16:11.362Z,25.99
2022-09-05T18:19:29.125Z,25.92
2022-09-05T18:21:55.308Z,25.83
2022-09-05T18:24:35.002Z,25.77
2022-09-05T18:27:30.982Z,25.69
2022-09-05T18:30:13.379Z,25.63
2022-09-05T18:32:51.952Z,25.57
2022-09-05T18:35:37.599Z,25.51
2022-09-05T18:38:49.828Z,25.47
2022-09-05T18:41:16.092Z,25.41
2022-09-05T18:44:13.078Z,25.37
2022-09-05T18:46:50.195Z,25.34
2022-09-05T18:50:21.777Z,25.31
2022-09-05T18:52:23.958Z,25.26
2022-09-05T18:56:09.360Z,25.20
2022-09-05T18:57:57.995Z,25.18
2022-09-05T19:00:44.619Z,25.13
2022-09-05T19:03:24.920Z,25.08
2022-09-05T19:06:34.658Z,25.03
2022-09-05T19:08:56.162Z,25.01
2022-09-05T19:11:32.071Z,25.00
2022-09-05T19:14:26.289Z,24.99
2022-09-05T19:17:07.673Z,24.96
2022-09-05T19:20:30.704Z,24.94
2022-09-05T19:23:10.010Z,24.90
2022-09-05T19:25:44.284Z,24.87
2022-09-05T19:36:46.395Z,24.83
2022-09-05T19:36:55.710Z,24.79
2022-09-05T19:37:03.614Z,24.73
2022-09-05T19:44:33.991Z,24.67
2022-09-05T19:47:39.850Z,24.61
2022-09-05T19:47:43.864Z,24.57
2022-09-05T19:48:30.878Z,24.52
2022-09-05T19:51:16.464Z,24.46
2022-09-05T19:53:58.334Z,24.39
2022-09-05T19:56:43.435Z,24.33
2022-09-05T19:59:22.624Z,24.28
2022-09-05T20:01:53.339Z,24.23
2022-09-05T20:04:26.599Z,24.17
2022-09-05T20:06:56.512Z,24.10
2022-09-05T20:09:28.648Z,24.06
2022-09-05T20:12:03.666Z,24.05
2022-09-05T20:14:36.913Z,24.01
2022-09-05T20:17:22.373Z,23.96
2022-09-05T20:19:52.492Z,23.88
2022-09-05T20:22:49.426Z,23.81
2022-09-05T20:25:35.918Z,23.74
2022-09-05T20:28:11.820Z,23.70
2022-09-05T20:30:45.826Z,23.65
2022-09-05T20:33:20.952Z,23.62
2022-09-05T20:40:03.973Z,23.58
2022-09-05T20:43:17.115Z,23.53
2022-09-05T20:43:31.462Z,23.48
2022-09-05T20:44:42.690Z,23.44
2022-09-05T20:54:05.338Z,23.42
2022-09-05T20:54:18.674Z,23.38
2022-09-05T20:54:20.749Z,23.32
2022-09-05T20:56:04.812Z,23.26
2022-09-05T20:58:36.015Z,23.23
2022-09-05T21:01:22.341Z,23.21
2022-09-05T21:04:01.272Z,23.17
2022-09-05T21:06:34.403Z,23.13
2022-09-05T21:09:15.989Z,23.11
2022-09-05T21:11:50.978Z,23.07
2022-09-05T21:14:22.503Z,23.05
2022-09-05T21:17:01.161Z,23.01
2022-09-05T21:19:54.064Z,22.97
2022-09-05T21:22:26.974Z,22.94
2022-09-05T21:25:36.628Z,22.90
2022-09-05T21:28:36.636Z,22.86
2022-09-05T21:31:15.978Z,22.80
2022-09-05T21:33:49.149Z,22.77
2022-09-05T21:36:27.727Z,22.77
2022-09-05T21:38:57.858Z,22.76
2022-09-05T21:41:27.654Z,22.72
2022-09-05T21:47:38.726Z,22.70
2022-09-05T21:47:46.382Z,22.70
2022-09-05T21:49:44.049Z,22.69
2022-09-05T21:52:15.497Z,22.67
2022-09-05T21:59:14.485Z,22.64
2022-09-05T21:59:27.558Z,22.64
2022-09-05T22:00:26.424Z,22.63
2022-09-05T22:02:56.543Z,22.64
2022-09-05T22:05:34.478Z,22.67
2022-09-05T22:08:06.515Z,22.66
2022-09-05T22:10:51.370Z,22.66
2022-09-05T22:13:22.297Z,22.66
2022-09-05T22:15:52.522Z,22.66
2022-09-05T22:18:22.282Z,22.66
2022-09-05T22:21:32.685Z,22.66
2022-09-05T22:23:48.778Z,22.63
2022-09-05T22:26:21.076Z,22.61
2022-09-05T22:28:51.586Z,22.58
2022-09-05T22:31:22.923Z,22.55
2022-09-05T22:33:52.748Z,22.53
2022-09-05T22:36:25.764Z,22.52
2022-09-05T22:38:55.955Z,22.50
2022-09-05T22:41:30.325Z,22.48
2022-09-05T22:44:01.001Z,22.45
2022-09-05T22:46:31.618Z,22.44
2022-09-05T22:49:01.469Z,22.42
2022-09-05T22:51:33.932Z,22.40
2022-09-05T22:54:03.702Z,22.39
2022-09-05T22:56:34.886Z,22.39
2022-09-05T22:59:05.912Z,22.38
2022-09-05T23:01:36.311Z,22.37
2022-09-05T23:04:06.672Z,22.37
2022-09-05T23:06:39.134Z,22.36
2022-09-05T23:09:09.957Z,22.33
2022-09-05T23:11:39.887Z,22.31
2022-09-05T23:14:09.591Z,22.31
2022-09-05T23:16:39.332Z,22.31
2022-09-05T23:19:09.047Z,22.30
2022-09-05T23:21:41.409Z,22.29
2022-09-05T23:24:11.123Z,22.26
2022-09-05T23:26:40.845Z,22.25
2022-09-05T23:29:10.580Z,22.20
2022-09-05T23:31:40.314Z,22.17
2022-09-05T23:34:10.048Z,22.13
2022-09-05T23:36:42.418Z,22.10
2022-09-05T23:39:12.488Z,22.09
2022-09-05T23:41:42.284Z,22.07
2022-09-05T23:44:12.103Z,22.02
2022-09-05T23:46:41.873Z,22.00
2022-09-05T23:49:11.669Z,21.98
2022-09-05T23:51:44.052Z,21.94
2022-09-05T23:54:13.789Z,21.90
2022-09-05T23:56:43.494Z,21.88
2022-09-05T23:59:13.336Z,21.87
